Strona główna
METAR-TAF:

METAR-TAF

Lotnisko :

Lismore, Australia

Szerokość geograficzna: 28-49-41S, Długość geograficzna: 153-15-36E, wysokość: 11 m

Aktualna obserwacja pogody

Raport powstał 31 minut temu, godzina 21:00 UTC
Wiatr 5 kt od północ
Temperatura 27°C
Wilgotność 79%
Ciśnienie 1011 hPa
Widzialność 10 km lub więcej

METAR: YLIS 232100Z AUTO 36005KT 9999 // NCD 27/23 Q1011

czas: 08:31 (21:31 UTC)


TAF: brakujący

Obserwacja i prognoza pogody dla ponad 4000 lotnisk (raport METAR i TAF).

Dostępne stacje oznaczono żółtymi i czerwonymi punktami na mapie.

Najedź kursorem aby zobaczyć nazwę stacji.

Kliknij aby zobaczyć obserwacje i prognozy pogody.

Aby zmienić mapę: kliknij na zielony przycisk z czarnym krzyżykiem, aby powiększyć; na zielony przycisk z myślnikiem, aby pomniejszyć; na zielone strzałki, aby przejść do map sąsiednich.


METAR-TAF: